Data for 08/19/2014

Time Sea-Level Adjusted Pressure Absolute Pressure Temperature Relative Humidity Dew Point   
(mb) (inHg) (mb) (inHg) (C) (F) (%) (C) (F)
00:05 1016 30 845 24.95 16.9 62.3 44 4.5 40.1
00:10 1016 30 845 24.95 16.9 62.3 45 4.9 40.7
00:15 1016 30 845 24.95 16.5 61.8 47 5.2 41.4
00:20 1016 30 845 24.95 16 60.9 48 5.2 41.3
00:25 1016 30 845 24.95 15.9 60.6 46 4.5 40.1
00:30 1016 30 845 24.95 16.1 61 47 4.8 40.6
00:35 1016 30 845 24.95 16 60.7 48 5.1 41.3
00:40 1016 30 845 24.95 15.8 60.4 49 5.1 41.2
00:45 1016 30 845 24.95 15.5 60 49 5 41
00:50 1016 30 845 24.95 15.5 59.9 48 4.7 40.5
00:55 1016 30 845 24.95 15.8 60.4 46 4.3 39.7
01:00 1016 30 845 24.95 16.4 61.6 44 4.1 39.5
01:05 1016 30 845 24.95 16.6 61.8 44 4.4 40
01:10 1016 30 845 24.95 16.3 61.4 45 4.4 40
01:15 1016 30 845 24.95 16.2 61.1 45 4.4 39.9
01:20 1016 30 845 24.95 16 60.8 47 4.7 40.4
01:25 1016 30 845 24.95 15.7 60.3 47 4.5 40.2
01:30 1016 30 845 24.95 15.6 60.1 47 4.4 39.9
01:35 1016 30 845 24.95 15.6 60.1 48 4.6 40.4
01:40 1016 30 845 24.95 15.6 60 47 4.4 39.8
01:45 1016 30 845 24.95 15.7 60.3 46 4.3 39.8
01:50 1016 30 845 24.95 15.9 60.5 46 4.3 39.8
01:55 1016 30 845 24.95 15.8 60.5 46 4.2 39.6
02:00 1015 29.97 845 24.95 15.8 60.4 46 4.4 39.9
02:05 1015 29.97 845 24.95 15.7 60.3 46 4.1 39.5
02:10 1015 29.97 845 24.95 15.8 60.5 46 4.3 39.7
02:15 1015 29.97 845 24.95 15.9 60.5 45 4.1 39.5
02:20 1015 29.97 845 24.95 15.7 60.3 46 4.3 39.7
02:25 1016 30 845 24.95 15.5 59.9 46 4.2 39.5
02:30 1016 30 845 24.95 15.4 59.7 47 4.3 39.7
02:35 1016 30 845 24.95 15.3 59.6 47 4.2 39.6
02:40 1016 30 845 24.95 15.4 59.8 46 3.9 39
02:45 1016 30 845 24.95 15.5 59.9 46 4.2 39.5
02:50 1016 30 845 24.95 15.5 59.9 46 4 39.3
02:55 1016 30 845 24.95 15.4 59.7 47 4.3 39.8
03:00 1015 29.97 845 24.95 15.2 59.3 48 4.2 39.6
03:05 1016 30 845 24.95 15.1 59.1 48 4.1 39.4
03:10 1016 30 845 24.95 15.1 59.2 47 4 39.2
03:15 1016 30 845 24.95 15.3 59.5 46 3.9 39
03:20 1016 30 845 24.95 15.4 59.7 46 3.9 39.1
03:25 1016 30 845 24.95 15.6 60 45 3.9 39
03:30 1016 30 845 24.95 15.4 59.7 47 4.1 39.4
03:35 1016 30 845 24.95 15.1 59.2 48 4.2 39.5
03:40 1016 30 845 24.95 15 59 47 3.8 38.9
03:45 1015 29.97 845 24.95 15.1 59.1 48 4.2 39.6
03:50 1015 29.97 845 24.95 14.9 58.9 48 4.1 39.4
03:55 1016 30 845 24.95 14.9 58.8 48 4.1 39.4
04:00 1016 30 845 24.95 14.7 58.5 48 4.1 39.3
04:05 1016 30 845 24.95 14.6 58.3 48 3.8 38.9
04:10 1016 30 845 24.95 14.6 58.4 49 4.1 39.3
04:15 1016 30 845 24.95 14.4 58 49 3.9 38.9
04:20 1016 30 845 24.95 14.7 58.5 47 3.6 38.5
04:25 1016 30 845 24.95 15 58.9 49 4.3 39.7
04:30 1016 30 845 24.95 14.4 57.8 49 3.8 38.9
04:35 1016 30 845 24.95 14.5 58 49 4 39.2
04:40 1016 30 845 24.95 14.2 57.6 50 4.1 39.4
04:45 1015 29.97 845 24.95 14.1 57.3 51 4.2 39.6
04:50 1015 29.97 845 24.95 13.8 56.8 52 4.1 39.3
04:55 1016 30 845 24.95 13.7 56.7 53 4.3 39.7
05:00 1015 29.97 845 24.95 13.4 56.2 53 4 39.2
05:05 1015 29.97 845 24.95 13.3 55.9 53 4 39.2
05:10 1015 29.97 845 24.95 13.2 55.8 53 3.8 38.9
05:15 1015 29.97 845 24.95 13.5 56.2 51 3.5 38.4
05:20 1015 29.97 845 24.95 13.9 57 49 3.6 38.4
05:25 1015 29.97 845 24.95 14.2 57.5 49 3.6 38.4
05:30 1015 29.97 845 24.95 14.1 57.5 50 3.8 38.9
05:35 1015 29.97 845 24.95 14 57.1 50 3.8 38.8
05:40 1015 29.97 845 24.95 13.8 56.8 51 4 39.2
05:45 1015 29.97 845 24.95 13.5 56.3 52 3.8 38.8
05:50 1015 29.97 845 24.95 13.7 56.6 51 3.7 38.6
05:55 1015 29.97 845 24.95 13.9 57 51 3.9 39
06:00 1015 29.97 845 24.95 13.8 56.9 50 3.7 38.7
06:05 1015 29.97 845 24.95 14.1 57.4 49 3.7 38.7
06:10 1015 29.97 845 24.95 14.5 58.1 47 3.6 38.4
06:15 1015 29.97 845 24.95 14.9 58.8 47 3.8 38.9
06:20 1015 29.97 845 24.95 14.9 58.8 47 3.8 38.9
06:25 1015 29.97 845 24.95 14.8 58.7 47 3.9 38.9
06:30 1015 29.97 845 24.95 14.8 58.6 47 3.7 38.7
06:35 1015 29.97 845 24.95 15 59 47 3.9 39.1
06:40 1015 29.97 845 24.95 15 59 49 4.5 40.1
06:45 1015 29.97 845 24.95 14.9 58.7 49 4.4 39.9
06:50 1015 29.97 844 24.92 15.1 59.2 47 4 39.2
06:55 1015 29.97 844 24.92 15.7 60.3 44 3.7 38.6
07:00 1015 29.97 844 24.92 16.3 61.3 44 4 39.3
07:05 1015 29.97 844 24.92 16.6 61.9 45 4.6 40.3
07:10 1015 29.97 844 24.92 16.7 62.1 46 5.1 41.1
07:15 1015 29.97 844 24.92 16.9 62.4 43 4.2 39.6
07:20 1015 29.97 844 24.92 17.2 62.9 42 4.4 39.8
07:25 1015 29.97 844 24.92 17.3 63.2 42 4.5 40.1
07:30 1015 29.97 844 24.92 17.5 63.4 44 5.1 41.1
07:35 1015 29.97 844 24.92 17.6 63.7 43 5.1 41.2
07:40 1015 29.97 844 24.92 17.6 63.7 46 5.9 42.5
07:45 1015 29.97 844 24.92 18.2 64.7 43 5.5 41.9
07:50 1015 29.97 844 24.92 18.6 65.4 44 6.2 43.1
07:55 1015 29.97 844 24.92 19.3 66.7 39 5.1 41.2
08:00 1015 29.97 844 24.92 20.1 68.3 37 5.3 41.6
08:05 1015 29.97 844 24.92 20.4 68.6 37 5.3 41.5
08:10 1015 29.97 844 24.92 20.6 69 35 4.9 40.9
08:15 1015 29.97 844 24.92 21.1 70 34 4.7 40.4
08:20 1015 29.97 844 24.92 20.4 68.8 36 5 40.9
08:25 1015 29.97 844 24.92 20.4 68.7 37 5.4 41.8
08:30 1015 29.97 844 24.92 19.8 67.6 39 5.5 41.9
08:35 1015 29.97 844 24.92 20 68 37 5.2 41.4
08:40 1015 29.97 844 24.92 20.3 68.6 36 5.1 41.2
08:45 1015 29.97 844 24.92 21.2 70.1 35 5.1 41.2
08:50 1015 29.97 844 24.92 21.8 71.2 31 4.2 39.6
08:55 1015 29.97 844 24.92 21.9 71.4 32 4.4 40
09:00 1015 29.97 844 24.92 22.2 71.9 30 4.1 39.4
09:05 1015 29.97 844 24.92 22 71.6 30 3.6 38.4
09:10 1015 29.97 844 24.92 22.2 72 29 3.5 38.4
09:15 1015 29.97 844 24.92 22.4 72.3 29 3.7 38.7
09:20 1015 29.97 844 24.92 21.8 71.2 30 3.8 38.9
09:25 1015 29.97 844 24.92 21.9 71.4 30 3.9 39.1
09:30 1015 29.97 844 24.92 22.7 72.8 29 4 39.2
09:35 1015 29.97 844 24.92 23.1 73.5 29 4.1 39.3
09:40 1015 29.97 844 24.92 23.5 74.3 28 4.2 39.5
09:45 1015 29.97 844 24.92 23.9 75 27 3.9 39
09:50 1015 29.97 844 24.92 24.2 75.6 26 3.8 38.9
09:55 1015 29.97 844 24.92 24.2 75.6 26 3.8 38.9
10:00 1015 29.97 844 24.92 24.6 76.3 26 4.1 39.4
10:05 1015 29.97 844 24.92 25.1 77.2 24 3.6 38.5
10:10 1015 29.97 844 24.92 25.2 77.3 25 4 39.2
10:15 1015 29.97 844 24.92 25 77 25 4.1 39.3
10:20 1015 29.97 844 24.92 25.3 77.5 25 3.9 39.1
10:25 1015 29.97 844 24.92 25.5 77.9 24 3.4 38.2
10:30 1015 29.97 844 24.92 25.6 78.1 24 3.6 38.5
10:35 1015 29.97 844 24.92 25.3 77.5 25 4.2 39.6
10:40 1015 29.97 844 24.92 25.3 77.6 22 2.6 36.7
10:45 1015 29.97 844 24.92 24.9 76.8 25 3.6 38.5
10:50 1015 29.97 844 24.92 25.4 77.7 21 2.1 35.7
10:55 1015 29.97 844 24.92 26 78.8 23 3.5 38.3
11:00 1015 29.97 844 24.92 25.9 78.6 24 3.8 38.8
11:05 1014 29.94 844 24.92 26.5 79.6 22 3.2 37.7
11:10 1014 29.94 844 24.92 26.2 79.1 23 3.8 38.8
11:15 1014 29.94 844 24.92 26.2 79.2 23 3.7 38.6
11:20 1014 29.94 844 24.92 27.2 80.9 22 3.8 38.8
11:25 1014 29.94 843 24.89 27.4 81.3 21 3.6 38.6
11:30 1014 29.94 843 24.89 27.4 81.4 20 2.8 37
11:35 1014 29.94 843 24.89 27.6 81.6 20 2.7 36.8
11:40 1014 29.94 843 24.89 27.1 80.7 21 3.4 38
11:45 1014 29.94 843 24.89 26.5 79.7 21 2.7 36.8
11:50 1014 29.94 843 24.89 26.8 80.3 20 2.5 36.5
11:55 1014 29.94 843 24.89 27.3 81.1 21 3.2 37.7
12:00 1014 29.94 843 24.89 27.2 80.9 18 1.4 34.5
12:05 1014 29.94 843 24.89 27.3 81.1 19 2.2 36
12:10 1014 29.94 843 24.89 26.9 80.5 20 2 35.7
12:15 1013 29.91 843 24.89 27 80.7 20 2.2 36
12:20 1013 29.91 843 24.89 27.2 81 18 1 33.8
12:25 1013 29.91 842 24.86 27.9 82.1 17 1.3 34.3
12:30 1013 29.91 842 24.86 28.7 83.7 17 1.7 35.1
12:35 1013 29.91 842 24.86 29 84.2 15 0.4 32.7
12:40 1013 29.91 842 24.86 28.8 83.8 17 1.5 34.7
12:45 1013 29.91 842 24.86 29.5 85 16 1.1 33.9
12:50 1013 29.91 842 24.86 29.5 85 17 1.9 35.5
12:55 1013 29.91 842 24.86 28.8 83.8 17 1.9 35.5
13:00 1013 29.91 842 24.86 28.6 83.5 17 1.7 35.1
13:05 1013 29.91 842 24.86 28.7 83.6 17 1.6 34.9
13:10 1013 29.91 842 24.86 27.6 81.7 17 0.8 33.5
13:15 1012 29.88 842 24.86 28.1 82.6 18 2 35.5
13:20 1012 29.88 842 24.86 28.8 83.8 16 1.2 34.1
13:25 1012 29.88 842 24.86 29 84.1 16 0.9 33.5
13:30 1012 29.88 842 24.86 29.1 84.3 17 1.8 35.3
13:35 1012 29.88 842 24.86 28.4 83.1 16 0.2 32.4
13:40 1012 29.88 842 24.86 28.3 83 16 0.7 33.2
13:45 1012 29.88 842 24.86 28.1 82.6 18 1.7 35
13:50 1012 29.88 842 24.86 28.5 83.4 17 1.3 34.4
13:55 1012 29.88 842 24.86 28.6 83.5 17 1.1 34
14:00 1012 29.88 842 24.86 28.4 83 17 1.5 34.6
14:05 1012 29.88 842 24.86 28.5 83.2 17 1.5 34.7
14:10 1012 29.88 842 24.86 28.2 82.8 18 1.8 35.2
14:15 1012 29.88 842 24.86 28.4 83.1 16 0.8 33.5
14:20 1012 29.88 842 24.86 28.5 83.3 18 2.1 35.7
14:25 1012 29.88 841 24.83 28.3 83 18 1.9 35.4
14:30 1012 29.88 841 24.83 28.2 82.8 17 1.2 34.1
14:35 1012 29.88 841 24.83 28 82.4 19 2.5 36.5
14:40 1012 29.88 842 24.86 28 82.4 17 1.3 34.3
14:45 1012 29.88 842 24.86 27.8 82.1 17 1.2 34.1
14:50 1012 29.88 842 24.86 27.3 81.1 17 0.5 32.9
14:55 1012 29.88 842 24.86 27 80.7 17 0.3 32.5
15:00 1012 29.88 842 24.86 27 80.6 24 4.8 40.6
15:05 1012 29.88 841 24.83 26.2 79.2 26 5.4 41.7
15:10 1012 29.88 841 24.83 25.9 78.6 25 4.6 40.3
15:15 1012 29.88 841 24.83 25.4 77.8 25 4.1 39.4
15:20 1012 29.88 841 24.83 25.1 77.3 23 2.8 37.1
15:25 1012 29.88 841 24.83 24.8 76.7 22 2.2 35.9
15:30 1012 29.88 841 24.83 24.5 76.1 24 2.7 36.9
15:35 1012 29.88 841 24.83 24.3 75.8 22 1.8 35.2
15:40 1013 29.91 842 24.86 24.3 75.8 22 1.5 34.8
15:45 1013 29.91 842 24.86 24.5 76 25 3.6 38.5
15:50 1013 29.91 843 24.89 23.9 75.1 28 4.6 40.2
15:55 1014 29.94 843 24.89 23.3 73.9 30 5.2 41.4
16:00 1014 29.94 843 24.89 22.1 71.8 51 11.6 52.9
16:05 1015 29.97 844 24.92 19.5 67.1 60 11.7 53.1
16:10 1015 29.97 844 24.92 18.9 66.1 63 11.7 53.1
16:15 1015 29.97 844 24.92 19 66.1 57 10.3 50.6
16:20 1015 29.97 844 24.92 19 66.1 57 10.3 50.6
16:25 1015 29.97 844 24.92 18.6 65.4 58 10.4 50.6
16:30 1015 29.97 844 24.92 18.4 65.1 58 10 49.9
16:35 1015 29.97 844 24.92 18.3 64.9 59 10.3 50.6
16:40 1015 29.97 844 24.92 17.8 64.1 63 10.8 51.5
16:45 1014 29.94 843 24.89 17.3 63.1 65 10.8 51.4
16:50 1014 29.94 843 24.89 17 62.5 64 10.2 50.3
16:55 1014 29.94 843 24.89 17 62.7 60 9.4 48.9
17:00 1014 29.94 843 24.89 17.4 63.3 58 9.2 48.5
17:05 1014 29.94 843 24.89 17.9 64.2 54 8.7 47.6
17:10 1014 29.94 843 24.89 18.5 65.3 59 10.4 50.6
17:15 1014 29.94 843 24.89 18.3 65 60 10.6 51.1
17:20 1014 29.94 843 24.89 18 64.5 59 9.9 49.9
17:25 1014 29.94 843 24.89 18.2 64.7 57 9.5 49.1
17:30 1013 29.91 843 24.89 18.3 64.9 57 9.7 49.4
17:35 1013 29.91 843 24.89 18 64.4 56 9.1 48.3
17:40 1014 29.94 843 24.89 18.1 64.6 53 8.4 47.2
17:45 1014 29.94 843 24.89 18.4 65 52 8.3 47
17:50 1014 29.94 843 24.89 18.4 65 51 8.1 46.7
17:55 1014 29.94 843 24.89 18.4 65.2 51 8.3 47
18:00 1014 29.94 843 24.89 18.4 65.1 52 8.5 47.3
18:05 1014 29.94 843 24.89 18.6 65.5 48 7.5 45.5
18:10 1014 29.94 843 24.89 18.9 66.1 48 7.9 46.2
18:15 1014 29.94 843 24.89 19.1 66.4 50 8.6 47.5
18:20 1014 29.94 843 24.89 19.1 66.3 50 8.4 47.1
18:25 1014 29.94 843 24.89 19.1 66.3 47 7.7 45.9
18:30 1014 29.94 843 24.89 19 66.2 50 8.5 47.3
18:35 1014 29.94 843 24.89 18.8 65.9 49 8.1 46.5
18:40 1014 29.94 843 24.89 18.7 65.6 52 8.7 47.6
18:45 1014 29.94 843 24.89 18.4 65 51 8.3 46.9
18:50 1014 29.94 843 24.89 18.2 64.7 53 8.7 47.6
18:55 1014 29.94 843 24.89 18.2 64.7 53 8.6 47.5
19:00 1014 29.94 843 24.89 18 64.3 55 8.9 48
19:05 1014 29.94 843 24.89 17.9 64.3 53 8.3 47
19:10 1014 29.94 843 24.89 17.9 64.1 54 8.4 47.2
19:15 1014 29.94 843 24.89 17.7 63.9 55 8.6 47.5
19:20 1014 29.94 843 24.89 17.7 63.8 55 8.7 47.6
19:25 1014 29.94 843 24.89 17.6 63.6 57 8.9 48.1
19:30 1014 29.94 843 24.89 17.4 63.4 57 9 48.2
19:35 1014 29.94 843 24.89 17.4 63.2 59 9.3 48.8
19:40 1014 29.94 843 24.89 17.1 62.8 60 9.4 48.9
19:45 1014 29.94 843 24.89 17 62.6 61 9.4 49
19:50 1014 29.94 843 24.89 16.9 62.4 60 9 48.3
19:55 1014 29.94 843 24.89 17 62.6 58 8.8 47.9
20:00 1014 29.94 843 24.89 17.2 62.9 56 8.5 47.3
20:05 1014 29.94 843 24.89 17.3 63.1 56 8.6 47.6
20:10 1014 29.94 843 24.89 17.2 63 57 8.8 47.8
20:15 1014 29.94 843 24.89 17 62.5 58 8.7 47.7
20:20 1014 29.94 843 24.89 17 62.6 55 8.1 46.6
20:25 1014 29.94 843 24.89 17.2 63 54 8 46.5
20:30 1014 29.94 843 24.89 17.3 63.2 54 8 46.4
20:35 1014 29.94 843 24.89 17.4 63.2 54 8.2 46.7
20:40 1014 29.94 843 24.89 17.3 63.2 54 8.1 46.7
20:45 1014 29.94 843 24.89 17.2 62.9 55 8.1 46.6
20:50 1014 29.94 843 24.89 17.1 62.7 55 8.1 46.5
20:55 1014 29.94 843 24.89 17.1 62.8 54 7.9 46.3
21:00 1014 29.94 843 24.89 17.5 63.4 50 7.1 44.8
21:05 1014 29.94 843 24.89 17.8 64 51 7.7 45.9
21:10 1014 29.94 843 24.89 17.7 63.9 51 7.4 45.4
21:15 1014 29.94 843 24.89 17.8 64 47 6.5 43.6
21:20 1014 29.94 843 24.89 18.9 66 41 5.7 42.2
21:25 1014 29.94 843 24.89 19.4 67 38 4.8 40.7
21:30 1014 29.94 843 24.89 19.8 67.6 38 5.2 41.3
21:35 1014 29.94 843 24.89 19.7 67.5 38 5 41
21:40 1014 29.94 843 24.89 19.6 67.2 42 6.4 43.5
21:45 1014 29.94 843 24.89 18.9 66 44 6.4 43.5
21:50 1014 29.94 843 24.89 18.9 66 43 6.2 43.2
21:55 1014 29.94 843 24.89 18.9 65.9 42 5.7 42.3
22:00 1014 29.94 843 24.89 19.1 66.5 36 4 39.3
22:05 1014 29.94 843 24.89 19.7 67.4 35 4 39.2
22:10 1014 29.94 843 24.89 19.8 67.6 37 5 41
22:15 1014 29.94 843 24.89 19.5 67.1 39 5.5 41.9
22:20 1014 29.94 843 24.89 19.4 67 40 5.7 42.2
22:25 1014 29.94 843 24.89 19.3 66.7 40 5.7 42.2
22:30 1014 29.94 843 24.89 19.2 66.6 41 5.8 42.5
22:35 1014 29.94 843 24.89 19.1 66.3 43 6.5 43.7
22:40 1014 29.94 843 24.89 18.8 65.9 46 7.2 45
22:45 1014 29.94 843 24.89 18.5 65.3 49 7.7 45.9
22:50 1014 29.94 843 24.89 18 64.3 51 7.8 46
22:55 1014 29.94 843 24.89 17.6 63.7 52 7.8 46.1
23:00 1014 29.94 843 24.89 17.5 63.4 52 7.7 45.9
23:05 1014 29.94 843 24.89 17.3 63.1 54 8 46.4
23:10 1014 29.94 843 24.89 17.1 62.8 54 7.8 46
23:15 1014 29.94 843 24.89 17 62.7 54 7.8 46
23:20 1014 29.94 843 24.89 17 62.5 54 7.8 46
23:25 1014 29.94 843 24.89 16.9 62.5 53 7.5 45.5
23:30 1013 29.91 843 24.89 17.2 62.9 50 6.7 44.1
23:35 1013 29.91 843 24.89 17.5 63.5 50 7 44.6
23:40 1013 29.91 843 24.89 17.4 63.3 50 7 44.6
23:45 1013 29.91 843 24.89 17.4 63.2 50 7 44.5
23:50 1013 29.91 843 24.89 17.4 63.4 50 7 44.5
23:55 1013 29.91 843 24.89 17.5 63.4 52 7.5 45.5
24:00 1013 29.91 843 24.89 17.4 63.3 52 7.5 45.6